MAPA DE AEROPUERTO

INFORMACIÓN METAR y TAF

METAR FOR LEJR
ADDS - METARS form results

(1704 UTC 17 April 2021)
Data provider http://aviationweather.gov/metar/data/
 
METAR text: LEJR 171700Z 24013KT 9999 FEW035 21/14 Q1016
Conditions at: LEJR (JEREZ (CIV/MIL) , ES) observed 1700 UTC 17 April 2021
Temperature: 21.0°C (70°F)
Dewpoint: 14.0°C (57°F) [RH = 64%]
Pressure (altimeter): 30.00 inches Hg (1016.0 mb)
Winds: from the WSW (240 degrees) at 15 MPH (13 knots; 6.7 m/s)
Visibility: 6 or more miles (10+ km)
Ceiling: at least 12,000 feet AGL
Clouds: few clouds at 3500 feet AGL
Weather: no significant weather observed at this time

METAR text: LEJR 171630Z 23012KT 200V260 9999 FEW035 22/14 Q1016
Conditions at: LEJR (JEREZ (CIV/MIL) , ES) observed 1630 UTC 17 April 2021
Temperature: 22.0°C (72°F)
Dewpoint: 14.0°C (57°F) [RH = 60%]
Pressure (altimeter): 30.00 inches Hg (1016.0 mb)
Winds: from the SW (230 degrees) at 14 MPH (12 knots; 6.2 m/s)
Visibility: 6 or more miles (10+ km)
Ceiling: at least 12,000 feet AGL
Clouds: few clouds at 3500 feet AGL
Weather: no significant weather observed at this time

Forecast for: LEJR (JEREZ (CIV/MIL) , ES)
Text: TAF LEJR 171100Z 1712/1812 31006KT 9999 FEW030 TX23/1715Z TN10/1806Z
Forecast period: 1200 UTC 17 April 2021 to 1200 UTC 18 April 2021
Forecast type: FROM: standard forecast or significant change
Winds: from the NW (310 degrees) at 7 MPH (6 knots; 3.1 m/s)
Visibility: 6 or more miles (10+ km)
Ceiling: at least 12,000 feet AGL
Clouds: few clouds at 3000 feet AGL
Weather: no significant weather forecast for this period
Text: PROB40
Forecast period: 1700 to 2100 UTC 17 April 2021
Forecast type: TEMPORARY: The following changes expected for less than half the time period
Winds: from the WSW (250 degrees) at 12 MPH (10 knots; 5.1 m/s)
Visibility: missing
Ceiling: unknown
Clouds: missing
Weather: no significant weather forecast for this period
Text: TEMPO 1717/1721 25010KT
Forecast period: 2200 UTC 17 April 2021 to 0800 UTC 18 April 2021
Forecast type: TEMPORARY: The following changes expected for less than half the time period
Visibility: 1.86 miles (2.99 km)
Ceiling: 500 feet AGL
Clouds: broken clouds at 500 feet AGL
Weather: BR  (mist)
Text: TEMPO 1722/1808 3000 BR BKN005
Forecast period: 0000 to 0700 UTC 18 April 2021
Forecast type: TEMPORARY: The following changes expected for less than half the time period
Visibility: 0.22 miles (0.35 km)
Ceiling: indefinite ceiling with vertical visibility of 100 feet AGL
Clouds: obscured sky
Weather: FG  (fog)